sensor_id;sensor_type;location;lat;lon;timestamp;pressure;altitude;pressure_sealevel;temperature;humidity
44044;BME280;29709;52.396;16.796;2023-02-02T00:01:07;100634.99;;;5.00;83.87
44044;BME280;29709;52.396;16.796;2023-02-02T00:04:20;100628.97;;;4.96;84.08
44044;BME280;29709;52.396;16.796;2023-02-02T00:07:49;100637.70;;;4.90;84.36
44044;BME280;29709;52.396;16.796;2023-02-02T00:10:53;100633.55;;;4.96;84.42
44044;BME280;29709;52.396;16.796;2023-02-02T00:13:56;100629.68;;;4.98;84.36
44044;BME280;29709;52.396;16.796;2023-02-02T00:16:59;100625.85;;;5.01;84.04
44044;BME280;29709;52.396;16.796;2023-02-02T00:20:03;100628.69;;;4.99;84.44
44044;BME280;29709;52.396;16.796;2023-02-02T00:23:06;100630.41;;;5.00;84.39
44044;BME280;29709;52.396;16.796;2023-02-02T00:26:09;100631.16;;;5.02;84.68
44044;BME280;29709;52.396;16.796;2023-02-02T00:29:15;100624.84;;;5.02;84.34
44044;BME280;29709;52.396;16.796;2023-02-02T00:32:19;100627.28;;;5.05;84.38
44044;BME280;29709;52.396;16.796;2023-02-02T00:35:22;100624.56;;;5.05;84.19
44044;BME280;29709;52.396;16.796;2023-02-02T00:38:53;100623.13;;;5.01;84.46
44044;BME280;29709;52.396;16.796;2023-02-02T00:41:56;100608.37;;;5.03;84.23
44044;BME280;29709;52.396;16.796;2023-02-02T00:45:00;100608.52;;;5.02;84.04
44044;BME280;29709;52.396;16.796;2023-02-02T00:48:15;100612.23;;;5.01;84.32
44044;BME280;29709;52.396;16.796;2023-02-02T00:51:18;100606.04;;;4.99;84.22
44044;BME280;29709;52.396;16.796;2023-02-02T00:54:22;100608.37;;;5.03;83.83
44044;BME280;29709;52.396;16.796;2023-02-02T00:57:25;100595.89;;;5.01;84.04
44044;BME280;29709;52.396;16.796;2023-02-02T01:00:32;100601.45;;;4.99;84.28
44044;BME280;29709;52.396;16.796;2023-02-02T01:04:00;100598.87;;;4.98;84.61
44044;BME280;29709;52.396;16.796;2023-02-02T01:07:04;100590.30;;;5.02;84.45
44044;BME280;29709;52.396;16.796;2023-02-02T01:10:11;100584.00;;;5.02;84.55
44044;BME280;29709;52.396;16.796;2023-02-02T01:13:15;100584.00;;;5.02;84.36
44044;BME280;29709;52.396;16.796;2023-02-02T01:16:19;100570.23;;;5.03;84.19
44044;BME280;29709;52.396;16.796;2023-02-02T01:19:24;100567.51;;;5.03;84.12
44044;BME280;29709;52.396;16.796;2023-02-02T01:22:27;100563.60;;;4.96;84.23
44044;BME280;29709;52.396;16.796;2023-02-02T01:25:30;100556.44;;;4.95;84.16
44044;BME280;29709;52.396;16.796;2023-02-02T01:28:37;100551.13;;;4.93;84.30
44044;BME280;29709;52.396;16.796;2023-02-02T01:32:06;100554.14;;;4.90;84.15
44044;BME280;29709;52.396;16.796;2023-02-02T01:35:09;100542.09;;;4.93;83.66
44044;BME280;29709;52.396;16.796;2023-02-02T01:38:13;100549.13;;;4.96;83.89
44044;BME280;29709;52.396;16.796;2023-02-02T01:41:21;100542.09;;;4.93;84.03
44044;BME280;29709;52.396;16.796;2023-02-02T01:47:46;100528.63;;;4.91;83.87
44044;BME280;29709;52.396;16.796;2023-02-02T01:51:19;100527.02;;;4.89;83.78
44044;BME280;29709;52.396;16.796;2023-02-02T01:54:30;100515.88;;;4.92;83.78
44044;BME280;29709;52.396;16.796;2023-02-02T01:57:38;100513.01;;;4.93;83.43
44044;BME280;29709;52.396;16.796;2023-02-02T02:00:43;100502.54;;;4.99;83.46
44044;BME280;29709;52.396;16.796;2023-02-02T02:03:46;100499.96;;;4.97;83.33
44044;BME280;29709;52.396;16.796;2023-02-02T02:06:50;100500.82;;;4.98;83.07
44044;BME280;29709;52.396;16.796;2023-02-02T02:09:56;100488.91;;;4.99;82.73
44044;BME280;29709;52.396;16.796;2023-02-02T02:13:26;100485.06;;;4.91;82.78
44044;BME280;29709;52.396;16.796;2023-02-02T02:17:00;100475.29;;;4.89;82.63
44044;BME280;29709;52.396;16.796;2023-02-02T02:27:38;100465.11;;;4.81;82.79
44044;BME280;29709;52.396;16.796;2023-02-02T02:34:06;100460.92;;;4.77;83.68
44044;BME280;29709;52.396;16.796;2023-02-02T02:40:31;100447.72;;;4.63;84.05
44044;BME280;29709;52.396;16.796;2023-02-02T02:43:42;100437.98;;;4.60;84.30
44044;BME280;29709;52.396;16.796;2023-02-02T02:46:48;100433.38;;;4.61;84.57
44044;BME280;29709;52.396;16.796;2023-02-02T02:50:17;100418.74;;;4.52;84.79
44044;BME280;29709;52.396;16.796;2023-02-02T02:53:21;100415.02;;;4.53;85.05
44044;BME280;29709;52.396;16.796;2023-02-02T02:56:41;100407.01;;;4.52;85.25
44044;BME280;29709;52.396;16.796;2023-02-02T03:06:22;100380.94;;;4.49;85.60
44044;BME280;29709;52.396;16.796;2023-02-02T03:09:32;100381.06;;;4.38;85.94
44044;BME280;29709;52.396;16.796;2023-02-02T03:12:44;100368.31;;;4.39;86.29
44044;BME280;29709;52.396;16.796;2023-02-02T03:15:48;100355.68;;;4.38;86.14
44044;BME280;29709;52.396;16.796;2023-02-02T03:19:16;100362.27;;;4.35;86.41
44044;BME280;29709;52.396;16.796;2023-02-02T03:22:19;100358.41;;;4.38;86.40
44044;BME280;29709;52.396;16.796;2023-02-02T03:25:22;100356.14;;;4.43;86.45
44044;BME280;29709;52.396;16.796;2023-02-02T03:28:26;100340.53;;;4.45;86.60
44044;BME280;29709;52.396;16.796;2023-02-02T03:31:30;100351.27;;;4.46;86.45
44044;BME280;29709;52.396;16.796;2023-02-02T03:34:33;100335.80;;;4.47;86.49
44044;BME280;29709;52.396;16.796;2023-02-02T03:37:36;100345.42;;;4.51;86.47
44044;BME280;29709;52.396;16.796;2023-02-02T03:40:40;100336.65;;;4.47;86.91
44044;BME280;29709;52.396;16.796;2023-02-02T03:43:43;100342.96;;;4.48;86.84
44044;BME280;29709;52.396;16.796;2023-02-02T03:46:46;100339.27;;;4.49;87.08
44044;BME280;29709;52.396;16.796;2023-02-02T03:50:16;100346.42;;;4.50;87.21
44044;BME280;29709;52.396;16.796;2023-02-02T03:53:20;100345.28;;;4.52;87.05
44044;BME280;29709;52.396;16.796;2023-02-02T03:56:24;100347.85;;;4.54;87.07
44044;BME280;29709;52.396;16.796;2023-02-02T03:59:27;100346.70;;;4.56;87.34
44044;BME280;29709;52.396;16.796;2023-02-02T04:02:30;100339.69;;;4.54;87.46
44044;BME280;29709;52.396;16.796;2023-02-02T04:05:33;100338.54;;;4.56;87.67
44044;BME280;29709;52.396;16.796;2023-02-02T04:08:36;100341.11;;;4.58;87.59
44044;BME280;29709;52.396;16.796;2023-02-02T04:11:41;100348.56;;;4.56;87.96
44044;BME280;29709;52.396;16.796;2023-02-02T04:14:44;100357.02;;;4.53;88.03
44044;BME280;29709;52.396;16.796;2023-02-02T04:17:47;100352.28;;;4.55;88.54
44044;BME280;29709;52.396;16.796;2023-02-02T04:21:15;100367.06;;;4.62;88.34
44044;BME280;29709;52.396;16.796;2023-02-02T04:24:19;100357.90;;;4.63;88.40
44044;BME280;29709;52.396;16.796;2023-02-02T04:27:22;100356.91;;;4.74;88.50
44044;BME280;29709;52.396;16.796;2023-02-02T04:30:25;100364.05;;;4.65;88.80
44044;BME280;29709;52.396;16.796;2023-02-02T04:33:28;100367.63;;;4.66;89.19
44044;BME280;29709;52.396;16.796;2023-02-02T04:36:32;100361.78;;;4.70;89.25
44044;BME280;29709;52.396;16.796;2023-02-02T04:39:35;100369.81;;;4.81;88.90
44044;BME280;29709;52.396;16.796;2023-02-02T04:42:38;100383.44;;;4.81;89.00
44044;BME280;29709;52.396;16.796;2023-02-02T04:45:42;100382.58;;;4.81;88.78
44044;BME280;29709;52.396;16.796;2023-02-02T04:48:48;100390.30;;;4.85;88.49
44044;BME280;29709;52.396;16.796;2023-02-02T04:52:19;100413.07;;;4.75;89.14
44044;BME280;29709;52.396;16.796;2023-02-02T04:55:23;100393.45;;;4.81;88.92
44044;BME280;29709;52.396;16.796;2023-02-02T04:58:26;100409.50;;;4.84;88.67
44044;BME280;29709;52.396;16.796;2023-02-02T05:01:29;100420.10;;;4.87;88.55
44044;BME280;29709;52.396;16.796;2023-02-02T05:04:33;100431.71;;;4.89;88.75
44044;BME280;29709;52.396;16.796;2023-02-02T05:07:36;100443.89;;;4.85;88.64
44044;BME280;29709;52.396;16.796;2023-02-02T05:10:42;100456.94;;;4.81;88.64
44044;BME280;29709;52.396;16.796;2023-02-02T05:13:50;100446.33;;;4.88;88.37
44044;BME280;29709;52.396;16.796;2023-02-02T05:17:18;100465.82;;;4.83;88.39
44044;BME280;29709;52.396;16.796;2023-02-02T05:20:22;100462.23;;;4.83;88.48
44044;BME280;29709;52.396;16.796;2023-02-02T05:23:25;100477.43;;;4.85;88.36
44044;BME280;29709;52.396;16.796;2023-02-02T05:26:28;100466.69;;;4.84;88.37
44044;BME280;29709;52.396;16.796;2023-02-02T05:29:32;100475.43;;;4.87;88.00
44044;BME280;29709;52.396;16.796;2023-02-02T05:32:35;100494.63;;;4.86;87.99
44044;BME280;29709;52.396;16.796;2023-02-02T05:35:38;100499.93;;;4.87;87.85
44044;BME280;29709;52.396;16.796;2023-02-02T05:38:42;100499.68;;;4.90;87.82
44044;BME280;29709;52.396;16.796;2023-02-02T05:41:50;100511.29;;;4.92;87.44
44044;BME280;29709;52.396;16.796;2023-02-02T05:45:18;100527.16;;;4.87;87.52
44044;BME280;29709;52.396;16.796;2023-02-02T05:48:21;100524.19;;;4.90;87.14
44044;BME280;29709;52.396;16.796;2023-02-02T05:51:28;100548.41;;;4.93;87.17
44044;BME280;29709;52.396;16.796;2023-02-02T05:54:33;100544.11;;;4.91;87.17
44044;BME280;29709;52.396;16.796;2023-02-02T05:57:42;100549.95;;;4.86;87.34
44044;BME280;29709;52.396;16.796;2023-02-02T06:00:46;100574.31;;;4.88;87.13
44044;BME280;29709;52.396;16.796;2023-02-02T06:03:49;100584.34;;;4.87;87.27
44044;BME280;29709;52.396;16.796;2023-02-02T06:06:52;100564.41;;;4.87;87.01
44044;BME280;29709;52.396;16.796;2023-02-02T06:10:21;100607.55;;;4.82;87.25
44044;BME280;29709;52.396;16.796;2023-02-02T06:13:24;100608.66;;;4.79;86.52
44044;BME280;29709;52.396;16.796;2023-02-02T06:16:28;100626.76;;;4.80;86.81
44044;BME280;29709;52.396;16.796;2023-02-02T06:19:31;100631.34;;;4.80;86.81
44044;BME280;29709;52.396;16.796;2023-02-02T06:22:39;100629.73;;;4.77;86.43
44044;BME280;29709;52.396;16.796;2023-02-02T06:25:42;100643.34;;;4.77;86.79
44044;BME280;29709;52.396;16.796;2023-02-02T06:28:51;100654.07;;;4.69;86.94
44044;BME280;29709;52.396;16.796;2023-02-02T06:31:54;100658.09;;;4.75;86.81
44044;BME280;29709;52.396;16.796;2023-02-02T06:35:23;100664.20;;;4.67;87.08
44044;BME280;29709;52.396;16.796;2023-02-02T06:38:26;100672.50;;;4.66;86.97
44044;BME280;29709;52.396;16.796;2023-02-02T06:41:32;100678.67;;;4.68;87.03
44044;BME280;29709;52.396;16.796;2023-02-02T06:44:42;100687.71;;;4.68;86.79
44044;BME280;29709;52.396;16.796;2023-02-02T06:47:53;100684.98;;;4.68;86.74
44044;BME280;29709;52.396;16.796;2023-02-02T06:51:03;100711.48;;;4.66;86.60
44044;BME280;29709;52.396;16.796;2023-02-02T06:54:41;100712.48;;;4.65;86.32
44044;BME280;29709;52.396;16.796;2023-02-02T06:57:56;100716.48;;;4.61;85.72
44044;BME280;29709;52.396;16.796;2023-02-02T07:01:02;100732.08;;;4.59;85.65
44044;BME280;29709;52.396;16.796;2023-02-02T07:04:09;100741.97;;;4.60;85.15
44044;BME280;29709;52.396;16.796;2023-02-02T07:07:19;100748.27;;;4.60;85.08
44044;BME280;29709;52.396;16.796;2023-02-02T07:10:58;100766.34;;;4.61;84.24
44044;BME280;29709;52.396;16.796;2023-02-02T07:14:05;100773.37;;;4.64;84.10
44044;BME280;29709;52.396;16.796;2023-02-02T07:17:15;100765.06;;;4.66;83.68
44044;BME280;29709;52.396;16.796;2023-02-02T07:20:26;100761.75;;;4.62;83.19
44044;BME280;29709;52.396;16.796;2023-02-02T07:23:36;100776.49;;;4.59;82.56
44044;BME280;29709;52.396;16.796;2023-02-02T07:27:15;100795.55;;;4.59;82.54
44044;BME280;29709;52.396;16.796;2023-02-02T07:30:22;100786.52;;;4.59;82.70
44044;BME280;29709;52.396;16.796;2023-02-02T07:33:33;100804.22;;;4.53;82.45
44044;BME280;29709;52.396;16.796;2023-02-02T07:36:43;100808.40;;;4.57;82.59
44044;BME280;29709;52.396;16.796;2023-02-02T07:39:53;100816.05;;;4.63;82.20
44044;BME280;29709;52.396;16.796;2023-02-02T07:43:32;100831.52;;;4.63;81.62
44044;BME280;29709;52.396;16.796;2023-02-02T07:46:40;100817.92;;;4.63;80.92
44044;BME280;29709;52.396;16.796;2023-02-02T07:49:49;100846.00;;;4.63;81.08
44044;BME280;29709;52.396;16.796;2023-02-02T07:53:00;100845.00;;;4.64;80.93
44044;BME280;29709;52.396;16.796;2023-02-02T07:59:51;100878.27;;;4.68;80.67
44044;BME280;29709;52.396;16.796;2023-02-02T08:02:58;100871.86;;;4.69;80.94
44044;BME280;29709;52.396;16.796;2023-02-02T08:06:35;100892.14;;;4.65;80.78
44044;BME280;29709;52.396;16.796;2023-02-02T08:09:29;100886.70;;;4.65;81.11
44044;BME280;29709;52.396;16.796;2023-02-02T08:12:34;100899.18;;;4.68;80.70
44044;BME280;29709;52.396;16.796;2023-02-02T08:45:20;100983.11;;;4.62;79.72
44044;BME280;29709;52.396;16.796;2023-02-02T08:48:24;100988.16;;;4.67;79.85
44044;BME280;29709;52.396;16.796;2023-02-02T08:51:52;100993.86;;;4.64;79.57
44044;BME280;29709;52.396;16.796;2023-02-02T08:54:55;100993.37;;;4.70;79.51
44044;BME280;29709;52.396;16.796;2023-02-02T08:57:59;101000.03;;;4.77;78.89
44044;BME280;29709;52.396;16.796;2023-02-02T09:01:05;101010.18;;;4.75;78.68
44044;BME280;29709;52.396;16.796;2023-02-02T09:04:12;101023.31;;;4.81;78.96
44044;BME280;29709;52.396;16.796;2023-02-02T09:10:28;101041.96;;;4.97;77.68
44044;BME280;29709;52.396;16.796;2023-02-02T09:14:01;101063.99;;;5.05;77.92
44044;BME280;29709;52.396;16.796;2023-02-02T09:17:07;101052.11;;;5.06;77.12
44044;BME280;29709;52.396;16.796;2023-02-02T09:20:11;101066.45;;;5.08;76.73
44044;BME280;29709;52.396;16.796;2023-02-02T09:23:14;101061.12;;;5.18;77.06
44044;BME280;29709;52.396;16.796;2023-02-02T09:26:22;101081.78;;;5.20;76.29
44044;BME280;29709;52.396;16.796;2023-02-02T09:29:27;101087.37;;;5.19;76.25
44044;BME280;29709;52.396;16.796;2023-02-02T09:32:30;101102.74;;;5.09;75.47
44044;BME280;29709;52.396;16.796;2023-02-02T09:35:36;101100.02;;;5.09;75.86
44044;BME280;29709;52.396;16.796;2023-02-02T09:38:40;101110.43;;;5.04;75.93
44044;BME280;29709;52.396;16.796;2023-02-02T09:48:48;101112.13;;;5.27;75.00
44044;BME280;29709;52.396;16.796;2023-02-02T09:52:02;101117.69;;;5.37;74.43
44044;BME280;29709;52.396;16.796;2023-02-02T09:55:39;101136.01;;;5.46;73.51
44044;BME280;29709;52.396;16.796;2023-02-02T09:58:48;101126.34;;;5.53;73.16
44044;BME280;29709;52.396;16.796;2023-02-02T10:01:57;101136.98;;;5.56;71.76
44044;BME280;29709;52.396;16.796;2023-02-02T10:05:14;101127.93;;;5.56;72.33
44044;BME280;29709;52.396;16.796;2023-02-02T10:08:29;101143.66;;;5.63;69.93
44044;BME280;29709;52.396;16.796;2023-02-02T10:25:26;101172.78;;;5.51;71.03
44044;BME280;29709;52.396;16.796;2023-02-02T10:28:40;101166.10;;;5.56;70.00
44044;BME280;29709;52.396;16.796;2023-02-02T10:35:14;101188.76;;;5.67;71.95
44044;BME280;29709;52.396;16.796;2023-02-02T10:42:05;101176.72;;;5.70;69.90
44044;BME280;29709;52.396;16.796;2023-02-02T10:45:18;101200.66;;;5.66;70.03
44044;BME280;29709;52.396;16.796;2023-02-02T10:48:26;101203.63;;;5.74;71.05
44044;BME280;29709;52.396;16.796;2023-02-02T11:01:48;101228.16;;;5.74;69.82
44044;BME280;29709;52.396;16.796;2023-02-02T11:05:26;101238.10;;;5.64;68.56
44044;BME280;29709;52.396;16.796;2023-02-02T11:08:43;101241.05;;;5.61;69.07
44044;BME280;29709;52.396;16.796;2023-02-02T11:15:01;101253.47;;;5.65;68.68
44044;BME280;29709;52.396;16.796;2023-02-02T11:18:13;101258.53;;;5.70;68.94
44044;BME280;29709;52.396;16.796;2023-02-02T11:21:51;101263.64;;;5.63;68.51
44044;BME280;29709;52.396;16.796;2023-02-02T11:24:57;101265.72;;;5.60;68.47
44044;BME280;29709;52.396;16.796;2023-02-02T11:28:12;101268.23;;;5.63;69.79
44044;BME280;29709;52.396;16.796;2023-02-02T11:34:39;101291.78;;;5.53;71.06
44044;BME280;29709;52.396;16.796;2023-02-02T11:37:52;101293.00;;;5.37;71.63
44044;BME280;29709;52.396;16.796;2023-02-02T11:41:21;101299.91;;;5.19;73.59
44044;BME280;29709;52.396;16.796;2023-02-02T11:44:27;101296.70;;;5.14;74.20
44044;BME280;29709;52.396;16.796;2023-02-02T11:47:32;101309.16;;;5.05;74.62
44044;BME280;29709;52.396;16.796;2023-02-02T11:50:48;101315.44;;;4.83;75.84
44044;BME280;29709;52.396;16.796;2023-02-02T11:54:03;101323.65;;;4.59;76.97
44044;BME280;29709;52.396;16.796;2023-02-02T11:57:19;101332.50;;;4.50;77.89
44044;BME280;29709;52.396;16.796;2023-02-02T12:00:50;101330.82;;;4.37;78.64
44044;BME280;29709;52.396;16.796;2023-02-02T12:03:58;101347.38;;;4.33;78.81
44044;BME280;29709;52.396;16.796;2023-02-02T12:10:25;101336.05;;;4.03;79.45
44044;BME280;29709;52.396;16.796;2023-02-02T12:20:14;101359.15;;;3.85;81.16
44044;BME280;29709;52.396;16.796;2023-02-02T12:23:30;101360.22;;;3.95;81.37
44044;BME280;29709;52.396;16.796;2023-02-02T12:26:33;101351.58;;;4.14;81.15
44044;BME280;29709;52.396;16.796;2023-02-02T12:30:28;101359.88;;;4.36;80.39
44044;BME280;29709;52.396;16.796;2023-02-02T12:36:48;101354.38;;;4.73;77.01
44044;BME280;29709;52.396;16.796;2023-02-02T12:43:17;101363.50;;;4.96;73.94
44044;BME280;29709;52.396;16.796;2023-02-02T13:12:33;101410.29;;;5.25;69.27
44044;BME280;29709;52.396;16.796;2023-02-02T13:16:09;101412.98;;;5.13;69.53
44044;BME280;29709;52.396;16.796;2023-02-02T13:22:36;101436.27;;;5.17;69.06
44044;BME280;29709;52.396;16.796;2023-02-02T13:25:43;101428.47;;;5.13;68.48
44044;BME280;29709;52.396;16.796;2023-02-02T13:35:26;101447.25;;;5.05;68.17
44044;BME280;29709;52.396;16.796;2023-02-02T13:38:31;101462.73;;;5.04;68.05
44044;BME280;29709;52.396;16.796;2023-02-02T13:41:44;101470.37;;;4.99;68.57
44044;BME280;29709;52.396;16.796;2023-02-02T14:03:35;101504.22;;;4.84;69.67
44044;BME280;29709;52.396;16.796;2023-02-02T14:06:28;101516.42;;;4.78;69.53
44044;BME280;29709;52.396;16.796;2023-02-02T14:10:02;101534.34;;;4.70;69.49
44044;BME280;29709;52.396;16.796;2023-02-02T14:13:15;101527.36;;;4.66;69.43
44044;BME280;29709;52.396;16.796;2023-02-02T14:16:42;101540.10;;;4.65;69.26
44044;BME280;29709;52.396;16.796;2023-02-02T14:19:49;101556.33;;;4.67;68.89
44044;BME280;29709;52.396;16.796;2023-02-02T14:29:57;101579.55;;;4.59;69.69
44044;BME280;29709;52.396;16.796;2023-02-02T14:36:16;101596.20;;;4.55;69.60
44044;BME280;29709;52.396;16.796;2023-02-02T14:46:37;101623.77;;;4.50;69.74
44044;BME280;29709;52.396;16.796;2023-02-02T14:51:00;101634.54;;;4.39;69.41
44044;BME280;29709;52.396;16.796;2023-02-02T14:53:26;101651.07;;;4.36;69.05
44044;BME280;29709;52.396;16.796;2023-02-02T14:59:52;101660.55;;;4.30;67.51
44044;BME280;29709;52.396;16.796;2023-02-02T15:03:54;101675.02;;;4.31;67.68
44044;BME280;29709;52.396;16.796;2023-02-02T15:06:41;101695.92;;;4.30;67.56
44044;BME280;29709;52.396;16.796;2023-02-02T15:09:45;101697.43;;;4.22;68.14
44044;BME280;29709;52.396;16.796;2023-02-02T15:13:01;101710.43;;;4.04;70.21
44044;BME280;29709;52.396;16.796;2023-02-02T15:16:09;101717.31;;;3.83;71.69
44044;BME280;29709;52.396;16.796;2023-02-02T15:23:05;101735.66;;;3.52;73.14
44044;BME280;29709;52.396;16.796;2023-02-02T15:26:17;101728.27;;;3.54;72.78
44044;BME280;29709;52.396;16.796;2023-02-02T15:32:36;101747.28;;;3.68;71.21
44044;BME280;29709;52.396;16.796;2023-02-02T15:35:39;101740.38;;;3.77;69.76
44044;BME280;29709;52.396;16.796;2023-02-02T15:46:03;101784.65;;;3.79;69.03
44044;BME280;29709;52.396;16.796;2023-02-02T15:52:31;101793.96;;;3.75;68.73
44044;BME280;29709;52.396;16.796;2023-02-02T15:59:24;101818.35;;;3.62;68.81
44044;BME280;29709;52.396;16.796;2023-02-02T16:05:51;101845.08;;;3.56;69.30
44044;BME280;29709;52.396;16.796;2023-02-02T16:08:56;101854.27;;;3.53;69.42
44044;BME280;29709;52.396;16.796;2023-02-02T16:12:00;101857.19;;;3.50;68.99
44044;BME280;29709;52.396;16.796;2023-02-02T16:15:29;101863.91;;;3.44;69.42
44044;BME280;29709;52.396;16.796;2023-02-02T16:18:35;101869.35;;;3.44;69.10
44044;BME280;29709;52.396;16.796;2023-02-02T16:24:59;101886.48;;;3.31;68.82
44044;BME280;29709;52.396;16.796;2023-02-02T16:28:04;101889.51;;;3.26;68.70
44044;BME280;29709;52.396;16.796;2023-02-02T16:31:07;101896.78;;;3.26;68.83
44044;BME280;29709;52.396;16.796;2023-02-02T16:34:44;101909.77;;;3.21;68.29
44044;BME280;29709;52.396;16.796;2023-02-02T16:37:48;101918.32;;;3.29;68.54
44044;BME280;29709;52.396;16.796;2023-02-02T16:41:24;101920.16;;;3.28;68.01
44044;BME280;29709;52.396;16.796;2023-02-02T16:47:31;101927.24;;;3.31;67.66
44044;BME280;29709;52.396;16.796;2023-02-02T16:51:07;101942.20;;;3.24;67.71
44044;BME280;29709;52.396;16.796;2023-02-02T16:54:18;101950.92;;;3.29;67.21
44044;BME280;29709;52.396;16.796;2023-02-02T16:57:26;101957.04;;;3.32;67.31
44044;BME280;29709;52.396;16.796;2023-02-02T17:00:31;101964.31;;;3.32;66.76
44044;BME280;29709;52.396;16.796;2023-02-02T17:03:37;101971.49;;;3.33;66.46
44044;BME280;29709;52.396;16.796;2023-02-02T17:06:43;101979.84;;;3.30;66.33
44044;BME280;29709;52.396;16.796;2023-02-02T17:10:38;101998.44;;;3.22;66.61
44044;BME280;29709;52.396;16.796;2023-02-02T17:13:34;101996.98;;;3.16;66.54
44044;BME280;29709;52.396;16.796;2023-02-02T17:16:38;102003.84;;;3.07;66.67
44044;BME280;29709;52.396;16.796;2023-02-02T17:19:41;102008.93;;;2.98;66.98
44044;BME280;29709;52.396;16.796;2023-02-02T17:22:54;102027.06;;;2.97;67.18
44044;BME280;29709;52.396;16.796;2023-02-02T17:25:57;102039.23;;;2.90;67.03
44044;BME280;29709;52.396;16.796;2023-02-02T17:29:01;102048.44;;;2.87;67.07
44044;BME280;29709;52.396;16.796;2023-02-02T17:32:10;102057.02;;;2.80;66.84
44044;BME280;29709;52.396;16.796;2023-02-02T17:35:38;102069.30;;;2.71;67.22
44044;BME280;29709;52.396;16.796;2023-02-02T17:38:42;102068.40;;;2.71;67.31
44044;BME280;29709;52.396;16.796;2023-02-02T17:41:47;102081.18;;;2.69;67.57
44044;BME280;29709;52.396;16.796;2023-02-02T17:44:52;102100.82;;;2.74;67.53
44044;BME280;29709;52.396;16.796;2023-02-02T17:47:55;102108.00;;;2.75;67.51
44044;BME280;29709;52.396;16.796;2023-02-02T17:50:58;102111.84;;;2.71;67.06
44044;BME280;29709;52.396;16.796;2023-02-02T17:54:11;102123.74;;;2.68;67.07
44044;BME280;29709;52.396;16.796;2023-02-02T17:57:14;102127.78;;;2.61;67.06
44044;BME280;29709;52.396;16.796;2023-02-02T18:00:50;102130.27;;;2.48;66.98
44044;BME280;29709;52.396;16.796;2023-02-02T18:03:55;102136.93;;;2.43;67.32
44044;BME280;29709;52.396;16.796;2023-02-02T18:06:58;102139.78;;;2.40;67.82
44044;BME280;29709;52.396;16.796;2023-02-02T18:10:07;102153.34;;;2.40;67.82
44044;BME280;29709;52.396;16.796;2023-02-02T18:13:20;102149.62;;;2.42;68.05
44044;BME280;29709;52.396;16.796;2023-02-02T18:16:26;102157.84;;;2.41;68.08
44044;BME280;29709;52.396;16.796;2023-02-02T18:20:13;102152.41;;;2.41;68.33
44044;BME280;29709;52.396;16.796;2023-02-02T18:23:16;102156.97;;;2.40;68.43
44044;BME280;29709;52.396;16.796;2023-02-02T18:26:23;102154.26;;;2.40;68.54
44044;BME280;29709;52.396;16.796;2023-02-02T18:29:33;102162.54;;;2.37;68.71
44044;BME280;29709;52.396;16.796;2023-02-02T18:32:43;102162.80;;;2.33;68.80
44044;BME280;29709;52.396;16.796;2023-02-02T18:36:22;102167.84;;;2.23;68.73
44044;BME280;29709;52.396;16.796;2023-02-02T18:39:30;102175.27;;;2.19;68.87
44044;BME280;29709;52.396;16.796;2023-02-02T18:42:40;102179.95;;;2.16;68.81
44044;BME280;29709;52.396;16.796;2023-02-02T18:46:00;102185.63;;;2.11;68.67
44044;BME280;29709;52.396;16.796;2023-02-02T18:49:04;102190.27;;;2.09;68.55
44044;BME280;29709;52.396;16.796;2023-02-02T18:52:40;102199.50;;;2.05;68.72
44044;BME280;29709;52.396;16.796;2023-02-02T18:55:47;102193.38;;;2.01;68.72
44044;BME280;29709;52.396;16.796;2023-02-02T18:58:58;102198.79;;;2.01;68.79
44044;BME280;29709;52.396;16.796;2023-02-02T19:02:15;102201.72;;;1.97;68.68
44044;BME280;29709;52.396;16.796;2023-02-02T19:05:19;102211.70;;;1.96;68.81
44044;BME280;29709;52.396;16.796;2023-02-02T19:08:59;102215.45;;;1.94;68.72
44044;BME280;29709;52.396;16.796;2023-02-02T19:12:13;102215.36;;;1.95;68.68
44044;BME280;29709;52.396;16.796;2023-02-02T19:15:17;102217.12;;;1.96;68.63
44044;BME280;29709;52.396;16.796;2023-02-02T19:18:30;102221.36;;;2.02;68.67
44044;BME280;29709;52.396;16.796;2023-02-02T19:21:38;102231.41;;;2.00;68.56
44044;BME280;29709;52.396;16.796;2023-02-02T19:25:17;102231.50;;;1.98;68.82
44044;BME280;29709;52.396;16.796;2023-02-02T19:28:27;102230.04;;;1.91;68.65
44044;BME280;29709;52.396;16.796;2023-02-02T19:31:35;102234.50;;;1.92;68.79
44044;BME280;29709;52.396;16.796;2023-02-02T19:34:46;102249.82;;;1.93;68.93
44044;BME280;29709;52.396;16.796;2023-02-02T19:37:59;102245.68;;;2.03;68.98
44044;BME280;29709;52.396;16.796;2023-02-02T19:41:35;102248.31;;;2.05;68.79
44044;BME280;29709;52.396;16.796;2023-02-02T19:44:42;102253.73;;;2.05;68.84
44044;BME280;29709;52.396;16.796;2023-02-02T19:47:54;102271.67;;;2.08;68.80
44044;BME280;29709;52.396;16.796;2023-02-02T19:54:30;102270.33;;;1.99;69.23
44044;BME280;29709;52.396;16.796;2023-02-02T19:58:11;102279.48;;;1.96;69.47
44044;BME280;29709;52.396;16.796;2023-02-02T20:01:17;102269.76;;;1.92;69.36
44044;BME280;29709;52.396;16.796;2023-02-02T20:04:22;102264.58;;;1.88;69.48
44044;BME280;29709;52.396;16.796;2023-02-02T20:07:25;102262.32;;;1.79;69.43
44044;BME280;29709;52.396;16.796;2023-02-02T20:10:40;102269.87;;;1.72;69.84
44044;BME280;29709;52.396;16.796;2023-02-02T20:13:48;102271.86;;;1.68;70.10
44044;BME280;29709;52.396;16.796;2023-02-02T20:17:26;102277.73;;;1.59;70.30
44044;BME280;29709;52.396;16.796;2023-02-02T20:20:37;102276.05;;;1.57;70.38
44044;BME280;29709;52.396;16.796;2023-02-02T20:23:43;102290.68;;;1.53;70.66
44044;BME280;29709;52.396;16.796;2023-02-02T20:26:49;102302.39;;;1.53;70.68
44044;BME280;29709;52.396;16.796;2023-02-02T20:30:26;102308.57;;;1.57;70.64